KCHD/CHD METAR and TAF weather

Enter ICAO airport designator
Station Type Date Time Source
KCHD METAR 2018/12/10 16:47 UTC NOAA

KCHD 101647Z 00000KT 10SM CLR 12/05 A3018


Station Type Date Time Source
KCHD Decoded METAR 2018/12/10 16:47 UTC NOAA

Chandler, Chandler Municipal Airport, AZ, United States (KCHD) 33-16-09N 111-48-40W
Dec 10, 2018 - 11:47 AM EST / 2018.12.10 1647 UTC
Wind: Calm:0
Visibility: 10 mile(s):0
Sky conditions: clear
Temperature: 53 F (12 C)
Dew Point: 41 F (5 C)
Relative Humidity: 62%
Pressure (altimeter): 30.18 in. Hg (1022 hPa)
ob: KCHD 101647Z 00000KT 10SM CLR 12/05 A3018
cycle: 17

Station Type Date Time Source
KCHD TAF UTC NOAA

Error!


Example: see airport list